createdAt,value
2023-04-01T00:00:31.396Z,9.54
2023-04-01T00:01:31.390Z,9.51
2023-04-01T00:02:31.482Z,9.51
2023-04-01T00:03:31.532Z,9.48
2023-04-01T00:04:31.520Z,9.43
2023-04-01T00:05:31.563Z,9.28
2023-04-01T00:06:31.321Z,9.26
2023-04-01T00:07:31.318Z,9.23
2023-04-01T00:08:31.309Z,9.23
2023-04-01T00:09:31.330Z,9.25
2023-04-01T00:10:31.288Z,9.26
2023-04-01T00:11:31.294Z,9.39
2023-04-01T00:12:31.240Z,9.37
2023-04-01T00:13:31.258Z,9.32
2023-04-01T00:14:31.273Z,9.34
2023-04-01T00:15:31.538Z,9.51
2023-04-01T00:16:31.265Z,9.51
2023-04-01T00:17:31.220Z,9.50
2023-04-01T00:18:31.192Z,9.21
2023-04-01T00:19:31.217Z,9.22
2023-04-01T00:20:31.162Z,9.23
2023-04-01T00:21:31.167Z,9.25
2023-04-01T00:22:31.153Z,9.25
2023-04-01T00:23:31.148Z,9.23
2023-04-01T00:24:31.148Z,9.26
2023-04-01T00:25:31.537Z,9.28
2023-04-01T00:26:31.119Z,9.29
2023-04-01T00:27:31.100Z,9.28
2023-04-01T00:28:31.086Z,9.28
2023-04-01T00:29:31.090Z,9.29
2023-04-01T00:30:31.052Z,9.31
2023-04-01T00:31:31.111Z,9.31
2023-04-01T00:32:31.049Z,9.32
2023-04-01T00:33:31.029Z,9.29
2023-04-01T00:34:31.052Z,9.29
2023-04-01T00:35:31.270Z,9.28
2023-04-01T00:36:30.991Z,9.28
2023-04-01T00:37:30.987Z,9.29
2023-04-01T00:38:30.970Z,9.32
2023-04-01T00:39:31.003Z,9.32
2023-04-01T00:40:30.947Z,9.31
2023-04-01T00:41:30.945Z,9.26
2023-04-01T00:42:30.918Z,9.26
2023-04-01T00:43:30.902Z,9.34
2023-04-01T00:44:30.961Z,9.32
2023-04-01T00:45:31.183Z,9.32
2023-04-01T00:46:30.878Z,9.34
2023-04-01T00:47:30.927Z,9.46
2023-04-01T00:48:30.873Z,9.47
2023-04-01T00:49:30.860Z,9.47
2023-04-01T00:50:30.872Z,9.34
2023-04-01T00:51:30.831Z,9.36
2023-04-01T00:52:30.812Z,9.32
2023-04-01T00:53:30.811Z,9.32
2023-04-01T00:54:30.792Z,9.40
2023-04-01T00:55:31.028Z,9.26
2023-04-01T00:56:30.772Z,9.28
2023-04-01T00:57:30.816Z,9.26
2023-04-01T00:58:30.793Z,9.28
2023-04-01T01:01:49.675Z,9.31
2023-04-01T01:02:49.642Z,9.54
2023-04-01T01:03:49.536Z,9.56
2023-04-01T01:04:49.533Z,9.56
2023-04-01T01:05:49.999Z,9.56
2023-04-01T01:06:49.489Z,9.55
2023-04-01T01:07:49.533Z,9.55
2023-04-01T01:08:49.479Z,9.56
2023-04-01T01:09:49.484Z,9.56
2023-04-01T01:10:49.448Z,9.54
2023-04-01T01:11:49.449Z,9.51
2023-04-01T01:12:49.475Z,9.47
2023-04-01T01:13:49.434Z,9.40
2023-04-01T01:14:49.393Z,9.25
2023-04-01T01:15:49.405Z,9.26
2023-04-01T01:16:49.418Z,9.26
2023-04-01T01:17:49.450Z,9.28
2023-04-01T01:18:49.355Z,9.25
2023-04-01T01:19:49.499Z,9.26
2023-04-01T01:20:49.335Z,9.25
2023-04-01T01:21:49.339Z,9.29
2023-04-01T01:22:49.344Z,9.29
2023-04-01T01:23:49.305Z,9.29
2023-04-01T01:24:49.297Z,9.31
2023-04-01T01:25:49.296Z,9.28
2023-04-01T01:26:49.270Z,9.26
2023-04-01T01:27:49.301Z,9.55
2023-04-01T01:28:49.261Z,9.55
2023-04-01T01:29:49.246Z,9.58
2023-04-01T01:30:49.246Z,9.58
2023-04-01T01:31:49.233Z,9.58
2023-04-01T01:32:49.281Z,9.56
2023-04-01T01:33:49.190Z,9.54
2023-04-01T01:34:49.166Z,9.55
2023-04-01T01:35:49.205Z,9.55
2023-04-01T01:36:49.123Z,9.54
2023-04-01T01:37:49.163Z,9.54
2023-04-01T01:38:49.119Z,9.55
2023-04-01T01:39:49.124Z,9.54
2023-04-01T01:40:49.102Z,9.50
2023-04-01T01:41:49.090Z,9.54
2023-04-01T01:42:49.132Z,9.54
2023-04-01T01:43:49.069Z,9.51
2023-04-01T01:44:49.073Z,9.55
2023-04-01T01:45:49.067Z,9.54
2023-04-01T01:46:49.090Z,9.54
2023-04-01T01:47:49.082Z,9.51
2023-04-01T01:48:49.002Z,9.50
2023-04-01T01:49:48.999Z,9.48
2023-04-01T01:50:48.976Z,9.48
2023-04-01T01:51:48.971Z,9.48
2023-04-01T01:52:48.997Z,9.47
2023-04-01T01:53:48.956Z,9.46
2023-04-01T01:54:48.930Z,9.47
2023-04-01T01:55:48.942Z,9.44
2023-04-01T01:56:48.938Z,9.44
2023-04-01T01:57:48.939Z,9.44
2023-04-01T01:58:48.889Z,9.25
2023-04-01T01:59:48.887Z,9.46
2023-04-01T02:00:48.883Z,9.48
2023-04-01T02:01:48.881Z,9.48
2023-04-01T02:02:48.937Z,9.47
2023-04-01T02:03:48.858Z,9.46
2023-04-01T02:04:48.893Z,9.48
2023-04-01T02:05:48.806Z,9.47
2023-04-01T02:06:48.802Z,9.46
2023-04-01T02:07:48.825Z,9.47
2023-04-01T02:08:48.776Z,9.48
2023-04-01T02:09:48.789Z,9.48
2023-04-01T02:10:48.747Z,9.48
2023-04-01T02:11:48.744Z,9.18
2023-04-01T02:12:48.768Z,9.16
2023-04-01T02:13:48.725Z,9.16
2023-04-01T02:14:48.703Z,9.14
2023-04-01T02:15:48.753Z,9.16
2023-04-01T02:16:48.678Z,9.14
2023-04-01T02:17:48.747Z,9.14
2023-04-01T02:18:48.656Z,9.16
2023-04-01T02:19:48.657Z,9.16
2023-04-01T02:20:48.635Z,9.16
2023-04-01T02:21:48.624Z,9.18
2023-04-01T02:22:48.661Z,9.16
2023-04-01T02:23:48.602Z,9.16
2023-04-01T02:24:48.586Z,9.18
2023-04-01T02:25:48.570Z,9.21
2023-04-01T02:26:48.570Z,9.21
2023-04-01T02:27:48.603Z,9.22
2023-04-01T02:28:48.541Z,9.22
2023-04-01T02:29:48.531Z,9.22
2023-04-01T02:30:48.544Z,9.21
2023-04-01T02:31:48.594Z,9.22
2023-04-01T02:32:48.620Z,9.36
2023-04-01T02:33:48.478Z,9.32
2023-04-01T02:34:48.477Z,9.25
2023-04-01T02:35:48.448Z,9.36
2023-04-01T02:36:48.469Z,9.32
2023-04-01T02:37:48.491Z,9.28
2023-04-01T02:38:48.439Z,9.37
2023-04-01T02:39:48.422Z,9.37
2023-04-01T02:40:48.428Z,9.37
2023-04-01T02:41:48.389Z,9.39
2023-04-01T02:42:48.436Z,9.37
2023-04-01T02:43:48.371Z,9.39
2023-04-01T02:44:48.363Z,9.36
2023-04-01T02:45:48.364Z,9.36
2023-04-01T02:46:48.375Z,9.36
2023-04-01T02:47:48.424Z,9.36
2023-04-01T02:48:48.377Z,9.39
2023-04-01T02:49:48.321Z,9.39
2023-04-01T02:50:48.301Z,9.36
2023-04-01T02:51:48.295Z,9.32
2023-04-01T02:52:48.327Z,9.29
2023-04-01T02:53:48.288Z,9.25
2023-04-01T02:54:48.254Z,9.25
2023-04-01T02:55:48.242Z,9.25
2023-04-01T02:56:48.249Z,9.23
2023-04-01T02:57:48.266Z,9.25
2023-04-01T02:58:48.211Z,9.23
2023-04-01T02:59:48.246Z,9.23
2023-04-01T03:00:48.246Z,9.22
2023-04-01T03:01:48.170Z,9.22
2023-04-01T03:02:48.255Z,9.22
2023-04-01T03:03:48.170Z,9.21
2023-04-01T03:04:48.150Z,9.21
2023-04-01T03:05:48.123Z,9.21
2023-04-01T03:06:48.120Z,9.19
2023-04-01T03:07:48.168Z,9.22
2023-04-01T03:08:48.087Z,9.23
2023-04-01T03:09:48.073Z,9.23
2023-04-01T03:10:48.064Z,9.23
2023-04-01T03:11:48.053Z,9.22
2023-04-01T03:12:48.096Z,9.21
2023-04-01T03:13:48.052Z,9.22
2023-04-01T03:14:48.041Z,9.22
2023-04-01T03:15:48.005Z,9.22
2023-04-01T03:16:48.043Z,9.25
2023-04-01T03:17:48.062Z,9.23
2023-04-01T03:18:47.981Z,9.41
2023-04-01T03:19:47.971Z,9.41
2023-04-01T03:20:47.963Z,9.40
2023-04-01T03:21:47.932Z,9.41
2023-04-01T03:22:47.984Z,9.41
2023-04-01T03:23:47.947Z,9.43
2023-04-01T03:24:47.906Z,9.41
2023-04-01T03:25:47.899Z,9.40
2023-04-01T03:26:47.891Z,9.40
2023-04-01T03:27:47.908Z,9.41
2023-04-01T03:28:47.858Z,9.40
2023-04-01T03:29:47.895Z,9.40
2023-04-01T03:30:47.857Z,9.39
2023-04-01T03:31:47.821Z,9.41
2023-04-01T03:32:47.953Z,9.40
2023-04-01T03:33:47.807Z,9.41
2023-04-01T03:34:47.776Z,9.39
2023-04-01T03:35:47.773Z,9.41
2023-04-01T03:36:47.760Z,9.39
2023-04-01T03:37:47.804Z,9.40
2023-04-01T03:38:47.750Z,9.39
2023-04-01T03:39:47.737Z,9.39
2023-04-01T03:40:47.747Z,9.37
2023-04-01T03:41:47.720Z,9.37
2023-04-01T03:42:47.781Z,9.36
2023-04-01T03:43:47.687Z,9.36
2023-04-01T03:44:47.676Z,9.34
2023-04-01T03:45:47.868Z,9.36
2023-04-01T03:46:47.651Z,9.26
2023-04-01T03:47:47.731Z,9.28
2023-04-01T03:48:47.663Z,9.32
2023-04-01T03:49:47.655Z,9.34
2023-04-01T03:50:47.612Z,9.34
2023-04-01T03:51:47.607Z,9.36
2023-04-01T03:52:47.637Z,9.32
2023-04-01T03:53:47.576Z,9.32
2023-04-01T03:54:47.581Z,9.29
2023-04-01T03:55:47.553Z,9.31
2023-04-01T03:56:47.559Z,9.32
2023-04-01T03:57:47.574Z,9.34
2023-04-01T03:58:47.524Z,9.34
2023-04-01T03:59:47.506Z,9.31
2023-04-01T04:00:47.499Z,9.32
2023-04-01T04:01:47.471Z,9.34
2023-04-01T04:02:47.594Z,9.31
2023-04-01T04:03:47.614Z,9.31
2023-04-01T04:04:47.531Z,9.29
2023-04-01T04:05:47.433Z,9.29
2023-04-01T04:06:47.464Z,9.26
2023-04-01T04:07:47.424Z,9.23
2023-04-01T04:08:47.462Z,9.23
2023-04-01T04:09:47.407Z,9.23
2023-04-01T04:10:47.493Z,9.21
2023-04-01T04:11:47.399Z,9.22
2023-04-01T04:12:47.396Z,9.22
2023-04-01T04:13:47.391Z,9.22
2023-04-01T04:14:47.339Z,9.22
2023-04-01T04:15:47.379Z,9.21
2023-04-01T04:16:47.323Z,9.18
2023-04-01T04:17:47.317Z,9.18
2023-04-01T04:18:47.341Z,9.21
2023-04-01T04:19:47.293Z,9.19
2023-04-01T04:20:47.277Z,9.18
2023-04-01T04:21:47.274Z,9.18
2023-04-01T04:22:47.263Z,9.16
2023-04-01T04:23:47.287Z,9.18
2023-04-01T04:24:47.223Z,9.14
2023-04-01T04:25:47.209Z,9.14
2023-04-01T04:26:47.222Z,9.11
2023-04-01T04:27:47.192Z,9.13
2023-04-01T04:28:47.212Z,9.13
2023-04-01T04:29:47.172Z,9.11
2023-04-01T04:30:47.241Z,9.16
2023-04-01T04:31:47.207Z,9.14
2023-04-01T04:32:47.188Z,9.13
2023-04-01T04:33:47.160Z,9.11
2023-04-01T04:34:47.122Z,9.10
2023-04-01T04:35:47.187Z,9.06
2023-04-01T04:36:47.110Z,9.04
2023-04-01T04:37:47.074Z,9.03
2023-04-01T04:38:47.135Z,9.02
2023-04-01T04:39:47.058Z,9.02
2023-04-01T04:40:47.045Z,9.00
2023-04-01T04:41:47.060Z,8.99
2023-04-01T04:42:47.020Z,8.99
2023-04-01T04:43:47.144Z,9.02
2023-04-01T04:44:47.019Z,9.00
2023-04-01T04:45:46.989Z,9.00
2023-04-01T04:46:47.010Z,8.99
2023-04-01T04:47:46.983Z,9.02
2023-04-01T04:48:46.999Z,9.00
2023-04-01T04:49:46.935Z,9.02
2023-04-01T04:50:46.935Z,9.02
2023-04-01T04:51:46.910Z,9.02
2023-04-01T04:52:46.918Z,9.02
2023-04-01T04:53:46.949Z,9.03
2023-04-01T04:54:46.883Z,9.02
2023-04-01T04:55:46.865Z,9.03
2023-04-01T04:56:46.903Z,9.03
2023-04-01T04:57:46.855Z,9.04
2023-04-01T04:58:46.877Z,9.04
2023-04-01T04:59:46.817Z,9.04
2023-04-01T05:00:46.815Z,9.06
2023-04-01T05:01:46.943Z,9.08
2023-04-01T05:02:46.869Z,9.11
2023-04-01T05:03:46.875Z,9.16
2023-04-01T05:04:46.792Z,9.18
2023-04-01T05:05:46.755Z,9.21
2023-04-01T05:06:46.767Z,9.21
2023-04-01T05:07:46.732Z,9.23
2023-04-01T05:08:46.765Z,9.25
2023-04-01T05:09:46.758Z,9.26
2023-04-01T05:10:46.695Z,9.26
2023-04-01T05:11:46.686Z,9.29
2023-04-01T05:12:46.678Z,9.31
2023-04-01T05:13:46.711Z,9.34
2023-04-01T05:14:46.660Z,9.37
2023-04-01T05:15:46.638Z,9.40
2023-04-01T05:16:46.679Z,9.43
2023-04-01T05:17:46.634Z,9.44
2023-04-01T05:18:46.663Z,9.47
2023-04-01T05:19:46.598Z,9.50
2023-04-01T05:20:46.584Z,9.51
2023-04-01T05:21:46.603Z,9.55
2023-04-01T05:22:46.566Z,9.56
2023-04-01T05:23:46.587Z,9.59
2023-04-01T05:24:46.543Z,9.62
2023-04-01T05:25:46.525Z,9.65
2023-04-01T05:26:46.531Z,9.68
2023-04-01T05:27:46.492Z,9.72
2023-04-01T05:28:46.546Z,9.74
2023-04-01T05:29:46.469Z,9.80
2023-04-01T05:30:46.512Z,9.84
2023-04-01T05:31:46.484Z,9.91
2023-04-01T05:32:46.506Z,9.97
2023-04-01T05:33:46.496Z,9.99
2023-04-01T05:34:46.434Z,10.04
2023-04-01T05:35:46.450Z,10.09
2023-04-01T05:36:46.406Z,10.05
2023-04-01T05:37:46.404Z,10.10
2023-04-01T05:38:46.437Z,10.12
2023-04-01T05:39:46.360Z,10.13
2023-04-01T05:40:46.365Z,10.17
2023-04-01T05:41:46.344Z,10.22
2023-04-01T05:42:46.352Z,10.30
2023-04-01T05:43:46.370Z,10.34
2023-04-01T05:44:46.299Z,10.34
2023-04-01T05:45:46.325Z,10.37
2023-04-01T05:46:46.310Z,10.38
2023-04-01T05:47:46.325Z,10.35
2023-04-01T05:48:46.315Z,10.40
2023-04-01T05:49:46.253Z,10.44
2023-04-01T05:50:46.245Z,10.41
2023-04-01T05:51:46.240Z,10.46
2023-04-01T05:52:46.218Z,10.51
2023-04-01T05:53:46.253Z,10.51
2023-04-01T05:54:46.191Z,10.53
2023-04-01T05:55:46.167Z,10.56
2023-04-01T05:56:47.619Z,10.56
2023-04-01T05:57:46.169Z,10.63
2023-04-01T05:58:46.191Z,10.68
2023-04-01T05:59:46.131Z,10.63
2023-04-01T06:00:46.823Z,10.68
2023-04-01T06:01:46.122Z,10.67
2023-04-01T06:02:46.160Z,10.63
2023-04-01T06:03:46.302Z,10.68
2023-04-01T06:04:46.188Z,10.71
2023-04-01T06:05:46.095Z,10.69
2023-04-01T06:06:46.063Z,10.68
2023-04-01T06:07:46.042Z,10.75
2023-04-01T06:08:46.134Z,10.78
2023-04-01T06:09:46.021Z,10.79
2023-04-01T06:10:46.049Z,10.86
2023-04-01T06:11:46.025Z,10.86
2023-04-01T06:12:45.987Z,10.82
2023-04-01T06:13:46.046Z,10.84
2023-04-01T06:14:45.959Z,10.82
2023-04-01T06:15:45.978Z,10.89
2023-04-01T06:16:45.971Z,10.90
2023-04-01T06:17:46.855Z,10.89
2023-04-01T06:18:46.010Z,10.87
2023-04-01T06:19:45.905Z,10.90
2023-04-01T06:20:45.924Z,10.87
2023-04-01T06:21:45.896Z,10.89
2023-04-01T06:22:45.885Z,10.93
2023-04-01T06:23:45.915Z,11.07
2023-04-01T06:24:45.842Z,11.00
2023-04-01T06:25:45.839Z,11.04
2023-04-01T06:26:45.827Z,10.89
2023-04-01T06:27:45.810Z,10.84
2023-04-01T06:28:45.870Z,10.93
2023-04-01T06:29:45.800Z,10.96
2023-04-01T06:30:45.772Z,11.00
2023-04-01T06:31:45.770Z,10.99
2023-04-01T06:32:45.836Z,10.97
2023-04-01T06:33:45.830Z,11.04
2023-04-01T06:34:45.762Z,11.02
2023-04-01T06:35:45.782Z,11.07
2023-04-01T06:36:45.744Z,11.07
2023-04-01T06:37:45.770Z,11.12
2023-04-01T06:38:45.897Z,11.10
2023-04-01T06:39:45.702Z,11.10
2023-04-01T06:40:45.677Z,11.12
2023-04-01T06:41:45.678Z,11.18
2023-04-01T06:42:45.660Z,11.18
2023-04-01T06:43:45.707Z,11.14
2023-04-01T06:44:45.656Z,11.17
2023-04-01T06:45:45.652Z,11.23
2023-04-01T06:46:45.615Z,11.23
2023-04-01T06:47:45.810Z,11.15
2023-04-01T06:48:45.665Z,11.22
2023-04-01T06:49:45.578Z,11.43
2023-04-01T06:50:45.568Z,11.45
2023-04-01T06:51:45.552Z,11.37
2023-04-01T06:52:45.525Z,11.40
2023-04-01T06:53:45.655Z,11.32
2023-04-01T06:54:45.509Z,11.27
2023-04-01T06:55:45.490Z,11.26
2023-04-01T06:56:45.491Z,11.29
2023-04-01T06:57:45.488Z,11.30
2023-04-01T06:58:45.525Z,11.25
2023-04-01T06:59:45.450Z,11.27
2023-04-01T07:00:45.456Z,11.40
2023-04-01T07:01:45.511Z,11.47
2023-04-01T07:02:45.449Z,11.52
2023-04-01T07:03:45.423Z,11.62
2023-04-01T07:04:45.488Z,11.77
2023-04-01T07:05:45.441Z,11.84
2023-04-01T07:06:45.366Z,11.75
2023-04-01T07:07:45.378Z,11.70
2023-04-01T07:08:45.348Z,11.84
2023-04-01T07:09:45.399Z,11.91
2023-04-01T07:10:45.324Z,11.97
2023-04-01T07:11:45.602Z,12.04
2023-04-01T07:12:45.315Z,12.15
2023-04-01T07:13:45.295Z,12.10
2023-04-01T07:14:45.318Z,12.18
2023-04-01T07:15:45.275Z,12.15
2023-04-01T07:16:45.250Z,12.02
2023-04-01T07:17:45.284Z,12.06
2023-04-01T07:18:45.232Z,12.13
2023-04-01T07:19:45.282Z,12.18
2023-04-01T07:20:45.219Z,12.18
2023-04-01T07:21:45.202Z,12.10
2023-04-01T07:22:45.199Z,12.25
2023-04-01T07:23:45.181Z,12.39
2023-04-01T07:24:45.203Z,12.62
2023-04-01T07:25:45.153Z,12.87
2023-04-01T07:26:45.632Z,12.85
2023-04-01T07:27:45.192Z,12.90
2023-04-01T07:28:45.133Z,12.62
2023-04-01T07:29:45.149Z,12.31
2023-04-01T07:30:45.139Z,12.42
2023-04-01T07:31:45.076Z,12.57
2023-04-01T07:32:45.091Z,12.61
2023-04-01T07:33:45.069Z,12.61
2023-04-01T07:34:45.099Z,12.55
2023-04-01T07:35:45.064Z,12.60
2023-04-01T07:36:45.039Z,12.57
2023-04-01T07:37:45.018Z,12.45
2023-04-01T07:38:45.018Z,12.39
2023-04-01T07:39:45.035Z,12.36
2023-04-01T07:40:44.983Z,12.20
2023-04-01T07:41:44.975Z,12.24
2023-04-01T07:42:44.955Z,12.27
2023-04-01T07:43:44.971Z,12.09
2023-04-01T07:44:44.983Z,12.03
2023-04-01T07:45:44.962Z,12.12
2023-04-01T07:46:44.991Z,12.12
2023-04-01T07:47:44.919Z,12.02
2023-04-01T07:48:44.913Z,11.90
2023-04-01T07:49:44.910Z,11.90
2023-04-01T07:50:45.968Z,11.88
2023-04-01T07:51:44.852Z,11.87
2023-04-01T07:52:44.847Z,11.83
2023-04-01T07:53:44.833Z,11.80
2023-04-01T07:54:44.874Z,11.73
2023-04-01T07:55:44.805Z,11.94
2023-04-01T07:56:44.884Z,11.90
2023-04-01T07:57:44.800Z,11.87
2023-04-01T07:58:44.766Z,11.84
2023-04-01T07:59:44.799Z,11.87
2023-04-01T08:00:44.759Z,11.87
2023-04-01T08:01:44.747Z,11.90
2023-04-01T08:02:44.790Z,12.00
2023-04-01T08:03:44.827Z,12.10
2023-04-01T08:04:44.771Z,12.13
2023-04-01T08:05:45.662Z,12.21
2023-04-01T08:06:44.696Z,12.35
2023-04-01T08:07:44.675Z,12.46
2023-04-01T08:08:44.672Z,12.54
2023-04-01T08:09:44.680Z,12.65
2023-04-01T08:10:44.612Z,12.73
2023-04-01T08:11:44.602Z,12.82
2023-04-01T08:12:44.600Z,12.90
2023-04-01T08:13:44.603Z,13.01
2023-04-01T08:14:44.643Z,13.04
2023-04-01T08:15:44.601Z,12.93
2023-04-01T08:16:44.630Z,12.78
2023-04-01T08:17:44.543Z,12.85
2023-04-01T08:18:44.538Z,12.76
2023-04-01T08:19:44.562Z,12.75
2023-04-01T08:20:44.525Z,12.67
2023-04-01T08:21:44.507Z,12.68
2023-04-01T08:22:44.516Z,12.70
2023-04-01T08:23:44.500Z,12.82
2023-04-01T08:24:47.536Z,12.83
2023-04-01T08:25:44.472Z,12.91
2023-04-01T08:26:44.447Z,12.91
2023-04-01T08:27:44.440Z,12.98
2023-04-01T08:28:44.417Z,13.08
2023-04-01T08:29:44.464Z,13.22
2023-04-01T08:30:44.393Z,13.28
2023-04-01T08:31:44.402Z,13.22
2023-04-01T08:32:44.439Z,13.19
2023-04-01T08:33:44.359Z,13.15
2023-04-01T08:34:44.396Z,13.18
2023-04-01T08:35:44.549Z,13.08
2023-04-01T08:36:44.342Z,13.16
2023-04-01T08:37:44.302Z,13.30
2023-04-01T08:38:44.292Z,13.39
2023-04-01T08:39:44.333Z,13.42
2023-04-01T08:40:44.275Z,13.35
2023-04-01T08:41:44.281Z,13.20
2023-04-01T08:42:44.247Z,13.23
2023-04-01T08:43:44.252Z,13.27
2023-04-01T08:44:44.264Z,13.28
2023-04-01T08:45:44.243Z,13.30
2023-04-01T08:46:44.231Z,13.42
2023-04-01T08:47:44.256Z,13.41
2023-04-01T08:48:44.213Z,13.49
2023-04-01T08:49:44.237Z,13.67
2023-04-01T08:50:44.155Z,13.87
2023-04-01T08:51:44.173Z,14.07
2023-04-01T08:52:44.140Z,14.20
2023-04-01T08:53:44.149Z,14.15
2023-04-01T08:54:44.171Z,14.25
2023-04-01T08:55:44.116Z,14.43
2023-04-01T08:56:44.086Z,14.59
2023-04-01T08:57:44.077Z,14.59
2023-04-01T08:58:44.079Z,14.59
2023-04-01T08:59:44.113Z,14.65
2023-04-01T09:00:44.069Z,14.44
2023-04-01T09:01:44.048Z,14.28
2023-04-01T09:02:44.184Z,14.22
2023-04-01T09:03:44.211Z,14.17
2023-04-01T09:04:44.053Z,14.23
2023-04-01T09:05:44.013Z,14.33
2023-04-01T09:06:43.975Z,14.41
2023-04-01T09:07:44.020Z,14.30
2023-04-01T09:08:43.964Z,14.23
2023-04-01T09:09:44.012Z,14.23
2023-04-01T09:10:43.952Z,14.35
2023-04-01T09:11:43.930Z,14.29
2023-04-01T09:12:43.918Z,14.22
2023-04-01T09:13:43.897Z,14.14
2023-04-01T09:14:43.938Z,14.05
2023-04-01T09:15:43.967Z,13.92
2023-04-01T09:16:43.869Z,13.97
2023-04-01T09:17:43.910Z,13.83
2023-04-01T09:18:43.851Z,13.72
2023-04-01T09:19:43.871Z,13.50
2023-04-01T09:20:43.820Z,13.31
2023-04-01T09:21:43.802Z,13.31
2023-04-01T09:22:43.813Z,13.08
2023-04-01T09:23:43.791Z,12.91
2023-04-01T09:24:43.832Z,12.76
2023-04-01T09:25:43.775Z,12.67
2023-04-01T09:26:43.761Z,12.54
2023-04-01T09:27:43.743Z,12.43
2023-04-01T09:28:43.722Z,12.39
2023-04-01T09:29:43.756Z,12.28
2023-04-01T09:30:43.689Z,12.18
2023-04-01T09:31:43.842Z,12.32
2023-04-01T09:32:43.744Z,12.27
2023-04-01T09:33:43.684Z,12.27
2023-04-01T09:34:43.705Z,12.29
2023-04-01T09:35:43.694Z,12.35
2023-04-01T09:36:43.646Z,12.37
2023-04-01T09:37:43.620Z,12.45
2023-04-01T09:38:43.625Z,12.54
2023-04-01T09:39:43.677Z,12.60
2023-04-01T09:40:43.575Z,12.62
2023-04-01T09:41:43.568Z,12.68
2023-04-01T09:42:43.580Z,12.75
2023-04-01T09:43:43.576Z,12.76
2023-04-01T09:44:43.616Z,12.87
2023-04-01T09:45:43.533Z,13.00
2023-04-01T09:46:43.704Z,13.13
2023-04-01T09:47:43.549Z,13.18
2023-04-01T09:48:43.523Z,13.22
2023-04-01T09:49:43.548Z,13.33
2023-04-01T09:50:43.497Z,13.33
2023-04-01T09:51:43.476Z,13.38
2023-04-01T09:52:45.335Z,13.46
2023-04-01T09:53:43.462Z,13.41
2023-04-01T09:54:43.496Z,13.39
2023-04-01T09:55:43.445Z,13.30
2023-04-01T09:56:43.413Z,13.33
2023-04-01T09:57:43.392Z,13.39
2023-04-01T09:58:44.217Z,13.46
2023-04-01T09:59:43.426Z,13.18
2023-04-01T10:00:43.383Z,13.05
2023-04-01T10:01:43.399Z,13.03
2023-04-01T10:02:43.521Z,13.03
2023-04-01T10:03:43.346Z,-39.96
2023-04-01T10:04:43.372Z,13.11
2023-04-01T10:05:43.375Z,13.09
2023-04-01T10:06:43.285Z,13.04
2023-04-01T10:07:43.294Z,12.76
2023-04-01T10:08:43.304Z,12.65
2023-04-01T10:09:43.341Z,12.75
2023-04-01T10:10:43.251Z,12.93
2023-04-01T10:11:43.239Z,12.93
2023-04-01T10:12:43.214Z,13.05
2023-04-01T10:13:43.224Z,13.00
2023-04-01T10:14:43.191Z,13.19
2023-04-01T10:15:43.251Z,13.25
2023-04-01T10:16:43.255Z,13.41
2023-04-01T10:17:43.186Z,13.49
2023-04-01T10:18:43.168Z,13.39
2023-04-01T10:19:43.157Z,13.60
2023-04-01T10:20:43.208Z,13.72
2023-04-01T10:21:43.140Z,13.79
2023-04-01T10:22:43.119Z,13.79
2023-04-01T10:23:43.097Z,13.74
2023-04-01T10:24:43.088Z,13.72
2023-04-01T10:25:43.134Z,13.79
2023-04-01T10:26:43.069Z,13.78
2023-04-01T10:27:43.070Z,13.92
2023-04-01T10:28:43.062Z,14.05
2023-04-01T10:29:43.031Z,14.17
2023-04-01T10:30:43.069Z,14.26
2023-04-01T10:31:43.105Z,14.37
2023-04-01T10:32:43.622Z,14.68
2023-04-01T10:33:42.999Z,14.88
2023-04-01T10:34:42.988Z,14.84
2023-04-01T10:35:43.008Z,15.11
2023-04-01T10:36:42.968Z,15.06
2023-04-01T10:37:42.932Z,15.43
2023-04-01T10:38:42.973Z,15.52
2023-04-01T10:39:42.908Z,15.95
2023-04-01T10:40:42.962Z,15.90
2023-04-01T10:41:42.890Z,15.98
2023-04-01T10:42:42.861Z,16.10
2023-04-01T10:43:42.870Z,16.05
2023-04-01T10:44:42.869Z,16.33
2023-04-01T10:45:42.934Z,16.33
2023-04-01T10:46:42.829Z,16.39
2023-04-01T10:47:42.878Z,16.60
2023-04-01T10:48:42.812Z,16.43
2023-04-01T10:49:42.790Z,16.49
2023-04-01T10:50:42.825Z,16.41
2023-04-01T10:51:42.765Z,16.29
2023-04-01T10:52:42.789Z,16.05
2023-04-01T10:53:42.757Z,15.75
2023-04-01T10:54:42.738Z,15.67
2023-04-01T10:55:42.764Z,15.54
2023-04-01T10:56:42.703Z,15.28
2023-04-01T10:57:42.707Z,15.47
2023-04-01T10:58:42.704Z,15.42
2023-04-01T10:59:42.686Z,15.22
2023-04-01T11:00:42.728Z,14.89
2023-04-01T11:01:42.694Z,14.58
2023-04-01T11:02:42.781Z,14.45
2023-04-01T11:03:42.655Z,14.43
2023-04-01T11:04:42.644Z,14.22
2023-04-01T11:05:42.669Z,14.07
2023-04-01T11:06:42.613Z,13.92
2023-04-01T11:07:43.197Z,14.11
2023-04-01T11:08:42.578Z,14.20
2023-04-01T11:09:42.567Z,14.25
2023-04-01T11:10:42.602Z,14.48
2023-04-01T11:11:42.537Z,14.28
2023-04-01T11:12:42.524Z,14.25
2023-04-01T11:13:42.526Z,14.59
2023-04-01T11:14:42.546Z,14.73
2023-04-01T11:15:42.560Z,14.92
2023-04-01T11:16:42.509Z,15.00
2023-04-01T11:17:42.508Z,15.03
2023-04-01T11:18:42.466Z,15.00
2023-04-01T11:19:42.446Z,15.09
2023-04-01T11:20:42.491Z,15.17
2023-04-01T11:21:42.439Z,15.22
2023-04-01T11:22:42.413Z,15.59
2023-04-01T11:23:44.009Z,15.47
2023-04-01T11:24:42.391Z,15.82
2023-04-01T11:25:42.420Z,15.83
2023-04-01T11:26:42.395Z,15.28
2023-04-01T11:27:42.362Z,15.43
2023-04-01T11:28:42.344Z,15.22
2023-04-01T11:29:53.191Z,15.58
2023-04-01T11:30:43.367Z,15.73
2023-04-01T11:31:42.326Z,15.94
2023-04-01T11:32:42.363Z,16.32
2023-04-01T11:33:42.288Z,16.53
2023-04-01T11:34:42.279Z,16.72
2023-04-01T11:35:42.307Z,16.87
2023-04-01T11:36:42.282Z,16.33
2023-04-01T11:37:42.244Z,16.23
2023-04-01T11:38:42.249Z,15.67
2023-04-01T11:39:42.254Z,15.65
2023-04-01T11:40:42.290Z,15.84
2023-04-01T11:41:42.196Z,15.44
2023-04-01T11:42:42.174Z,15.24
2023-04-01T11:43:42.156Z,15.14
2023-04-01T11:44:42.153Z,15.00
2023-04-01T11:45:42.227Z,15.02
2023-04-01T11:46:42.275Z,14.79
2023-04-01T11:47:42.168Z,15.22
2023-04-01T11:48:43.369Z,15.51
2023-04-01T11:49:42.132Z,15.37
2023-04-01T11:50:42.126Z,15.25
2023-04-01T11:51:42.079Z,15.18
2023-04-01T11:52:42.067Z,15.27
2023-04-01T11:53:42.068Z,15.19
2023-04-01T11:54:42.159Z,15.36
2023-04-01T11:55:42.086Z,15.43
2023-04-01T11:56:42.035Z,15.47
2023-04-01T11:57:42.006Z,15.44
2023-04-01T11:58:42.024Z,15.64
2023-04-01T11:59:42.014Z,16.00
2023-04-01T12:00:42.038Z,15.92
2023-04-01T12:01:41.977Z,15.91
2023-04-01T12:02:42.092Z,15.91
2023-04-01T12:03:42.052Z,16.04
2023-04-01T12:04:41.950Z,15.90
2023-04-01T12:05:41.996Z,16.10
2023-04-01T12:06:41.925Z,15.72
2023-04-01T12:07:41.963Z,15.61
2023-04-01T12:08:41.898Z,15.51
2023-04-01T12:09:41.869Z,15.40
2023-04-01T12:10:41.921Z,15.55
2023-04-01T12:11:41.863Z,15.84
2023-04-01T12:12:50.748Z,15.97
2023-04-01T12:13:42.860Z,16.16
2023-04-01T12:14:41.838Z,16.35
2023-04-01T12:15:41.847Z,16.26
2023-04-01T12:16:41.836Z,16.28
2023-04-01T12:17:41.834Z,16.26
2023-04-01T12:18:41.795Z,16.38
2023-04-01T12:19:41.817Z,16.49
2023-04-01T12:20:41.808Z,16.46
2023-04-01T12:21:41.778Z,16.17
2023-04-01T12:22:41.772Z,16.12
2023-04-01T12:23:41.712Z,15.98
2023-04-01T12:24:41.710Z,15.90
2023-04-01T12:25:41.743Z,15.91
2023-04-01T12:26:41.690Z,16.09
2023-04-01T12:27:41.680Z,15.95
2023-04-01T12:28:41.660Z,16.08
2023-04-01T12:29:41.639Z,16.16
2023-04-01T12:30:41.716Z,16.00
2023-04-01T12:31:41.681Z,16.09
2023-04-01T12:32:41.758Z,16.16
2023-04-01T12:33:41.605Z,16.47
2023-04-01T12:34:41.570Z,16.47
2023-04-01T12:35:41.625Z,16.68
2023-04-01T12:36:41.546Z,16.53
2023-04-01T12:37:41.564Z,16.41
2023-04-01T12:38:41.551Z,16.50
2023-04-01T12:39:41.547Z,16.64
2023-04-01T12:40:41.607Z,17.04
2023-04-01T12:41:41.520Z,17.23
2023-04-01T12:42:41.506Z,17.49
2023-04-01T12:43:41.489Z,17.46
2023-04-01T12:44:41.487Z,17.82
2023-04-01T12:45:41.549Z,17.83
2023-04-01T12:46:41.458Z,17.71
2023-04-01T12:47:41.510Z,17.48
2023-04-01T12:48:41.437Z,17.83
2023-04-01T12:49:41.439Z,17.64
2023-04-01T12:50:41.487Z,18.03
2023-04-01T12:51:41.398Z,19.11
2023-04-01T12:52:41.386Z,19.54
2023-04-01T12:53:41.399Z,19.92
2023-04-01T12:54:41.369Z,19.92
2023-04-01T12:55:41.382Z,19.55
2023-04-01T12:56:41.390Z,18.66
2023-04-01T12:57:41.346Z,18.35
2023-04-01T12:58:41.339Z,17.34
2023-04-01T12:59:41.295Z,16.86
2023-04-01T13:00:43.255Z,16.81
2023-04-01T13:01:41.333Z,16.50
2023-04-01T13:02:41.286Z,16.17
2023-04-01T13:03:41.281Z,16.00
2023-04-01T13:04:41.282Z,15.68
2023-04-01T13:05:41.288Z,15.37